sensor_id;sensor_type;location;lat;lon;timestamp;pressure;altitude;pressure_sealevel;temperature
11792;BMP180;5953;52.372;9.918;2023-02-15T00:01:52;102165.00;;;7.40
11792;BMP180;5953;52.372;9.918;2023-02-15T00:04:22;102171.00;;;7.40
11792;BMP180;5953;52.372;9.918;2023-02-15T00:06:50;102172.00;;;7.40
11792;BMP180;5953;52.372;9.918;2023-02-15T00:09:18;102178.00;;;7.50
11792;BMP180;5953;52.372;9.918;2023-02-15T00:11:46;102157.00;;;7.40
11792;BMP180;5953;52.372;9.918;2023-02-15T00:14:19;102172.00;;;7.30
11792;BMP180;5953;52.372;9.918;2023-02-15T00:16:49;102174.00;;;7.30
11792;BMP180;5953;52.372;9.918;2023-02-15T00:19:20;102155.00;;;7.30
11792;BMP180;5953;52.372;9.918;2023-02-15T00:21:48;102160.00;;;7.30
11792;BMP180;5953;52.372;9.918;2023-02-15T00:24:18;102161.00;;;7.30
11792;BMP180;5953;52.372;9.918;2023-02-15T00:26:47;102162.00;;;7.20
11792;BMP180;5953;52.372;9.918;2023-02-15T00:29:16;102171.00;;;7.20
11792;BMP180;5953;52.372;9.918;2023-02-15T00:31:45;102153.00;;;7.20
11792;BMP180;5953;52.372;9.918;2023-02-15T00:34:14;102163.00;;;7.30
11792;BMP180;5953;52.372;9.918;2023-02-15T00:36:45;102158.00;;;7.40
11792;BMP180;5953;52.372;9.918;2023-02-15T00:39:14;102147.00;;;7.20
11792;BMP180;5953;52.372;9.918;2023-02-15T00:41:42;102132.00;;;7.30
11792;BMP180;5953;52.372;9.918;2023-02-15T00:44:10;102138.00;;;7.30
11792;BMP180;5953;52.372;9.918;2023-02-15T00:46:37;102143.00;;;7.40
11792;BMP180;5953;52.372;9.918;2023-02-15T00:49:05;102138.00;;;7.50
11792;BMP180;5953;52.372;9.918;2023-02-15T00:51:33;102132.00;;;7.50
11792;BMP180;5953;52.372;9.918;2023-02-15T00:54:03;102133.00;;;7.50
11792;BMP180;5953;52.372;9.918;2023-02-15T00:56:31;102132.00;;;7.40
11792;BMP180;5953;52.372;9.918;2023-02-15T00:58:58;102114.00;;;7.40
11792;BMP180;5953;52.372;9.918;2023-02-15T01:01:26;102126.00;;;7.50
11792;BMP180;5953;52.372;9.918;2023-02-15T01:03:54;102133.00;;;7.50
11792;BMP180;5953;52.372;9.918;2023-02-15T01:06:22;102111.00;;;7.40
11792;BMP180;5953;52.372;9.918;2023-02-15T01:08:50;102127.00;;;7.30
11792;BMP180;5953;52.372;9.918;2023-02-15T01:11:21;102133.00;;;7.20
11792;BMP180;5953;52.372;9.918;2023-02-15T01:13:51;102113.00;;;7.40
11792;BMP180;5953;52.372;9.918;2023-02-15T01:16:20;102087.00;;;7.10
11792;BMP180;5953;52.372;9.918;2023-02-15T01:18:48;102128.00;;;6.90
11792;BMP180;5953;52.372;9.918;2023-02-15T01:21:18;102114.00;;;7.00
11792;BMP180;5953;52.372;9.918;2023-02-15T01:23:46;102098.00;;;7.00
11792;BMP180;5953;52.372;9.918;2023-02-15T01:26:14;102128.00;;;7.00
11792;BMP180;5953;52.372;9.918;2023-02-15T01:28:44;102129.00;;;7.00
11792;BMP180;5953;52.372;9.918;2023-02-15T01:31:14;102113.00;;;7.00
11792;BMP180;5953;52.372;9.918;2023-02-15T01:33:43;102126.00;;;7.00
11792;BMP180;5953;52.372;9.918;2023-02-15T01:36:11;102105.00;;;7.00
11792;BMP180;5953;52.372;9.918;2023-02-15T01:38:39;102121.00;;;7.00
11792;BMP180;5953;52.372;9.918;2023-02-15T01:41:08;102122.00;;;7.00
11792;BMP180;5953;52.372;9.918;2023-02-15T01:43:52;102127.00;;;7.00
11792;BMP180;5953;52.372;9.918;2023-02-15T01:46:28;102116.00;;;7.00
11792;BMP180;5953;52.372;9.918;2023-02-15T01:49:02;102110.00;;;7.10
11792;BMP180;5953;52.372;9.918;2023-02-15T01:51:37;102106.00;;;7.10
11792;BMP180;5953;52.372;9.918;2023-02-15T01:54:11;102109.00;;;7.00
11792;BMP180;5953;52.372;9.918;2023-02-15T01:56:42;102104.00;;;6.90
11792;BMP180;5953;52.372;9.918;2023-02-15T01:59:15;102098.00;;;6.80
11792;BMP180;5953;52.372;9.918;2023-02-15T02:01:44;102074.00;;;6.80
11792;BMP180;5953;52.372;9.918;2023-02-15T02:04:15;102070.00;;;6.80
11792;BMP180;5953;52.372;9.918;2023-02-15T02:06:44;102095.00;;;6.70
11792;BMP180;5953;52.372;9.918;2023-02-15T02:09:14;102080.00;;;6.60
11792;BMP180;5953;52.372;9.918;2023-02-15T02:11:44;102080.00;;;6.70
11792;BMP180;5953;52.372;9.918;2023-02-15T02:14:15;102076.00;;;6.80
11792;BMP180;5953;52.372;9.918;2023-02-15T02:16:49;102064.00;;;6.90
11792;BMP180;5953;52.372;9.918;2023-02-15T02:19:51;102075.00;;;6.90
11792;BMP180;5953;52.372;9.918;2023-02-15T02:22:45;102069.00;;;6.90
11792;BMP180;5953;52.372;9.918;2023-02-15T02:25:43;102072.00;;;6.90
11792;BMP180;5953;52.372;9.918;2023-02-15T02:28:30;102054.00;;;6.80
11792;BMP180;5953;52.372;9.918;2023-02-15T02:31:22;102035.00;;;6.80
11792;BMP180;5953;52.372;9.918;2023-02-15T02:34:05;102072.00;;;6.60
11792;BMP180;5953;52.372;9.918;2023-02-15T02:36:41;102070.00;;;6.60
11792;BMP180;5953;52.372;9.918;2023-02-15T02:39:23;102059.00;;;6.60
11792;BMP180;5953;52.372;9.918;2023-02-15T02:42:01;102056.00;;;6.60
11792;BMP180;5953;52.372;9.918;2023-02-15T02:44:36;102053.00;;;6.60
11792;BMP180;5953;52.372;9.918;2023-02-15T02:47:11;102046.00;;;6.70
11792;BMP180;5953;52.372;9.918;2023-02-15T02:49:42;102049.00;;;6.70
11792;BMP180;5953;52.372;9.918;2023-02-15T02:52:36;102044.00;;;6.70
11792;BMP180;5953;52.372;9.918;2023-02-15T02:55:06;102023.00;;;6.70
11792;BMP180;5953;52.372;9.918;2023-02-15T02:57:37;102040.00;;;6.70
11792;BMP180;5953;52.372;9.918;2023-02-15T03:00:07;102028.00;;;6.60
11792;BMP180;5953;52.372;9.918;2023-02-15T03:02:38;102031.00;;;6.60
11792;BMP180;5953;52.372;9.918;2023-02-15T03:05:14;102021.00;;;6.70
11792;BMP180;5953;52.372;9.918;2023-02-15T03:07:47;102034.00;;;6.60
11792;BMP180;5953;52.372;9.918;2023-02-15T03:10:21;102006.00;;;6.50
11792;BMP180;5953;52.372;9.918;2023-02-15T03:12:49;102027.00;;;6.60
11792;BMP180;5953;52.372;9.918;2023-02-15T03:15:20;101992.00;;;6.60
11792;BMP180;5953;52.372;9.918;2023-02-15T03:17:51;102015.00;;;6.60
11792;BMP180;5953;52.372;9.918;2023-02-15T03:20:24;102004.00;;;6.60
11792;BMP180;5953;52.372;9.918;2023-02-15T03:22:56;102018.00;;;6.70
11792;BMP180;5953;52.372;9.918;2023-02-15T03:25:27;102004.00;;;6.70
11792;BMP180;5953;52.372;9.918;2023-02-15T03:28:00;102005.00;;;6.60
11792;BMP180;5953;52.372;9.918;2023-02-15T03:30:30;102004.00;;;6.70
11792;BMP180;5953;52.372;9.918;2023-02-15T03:32:59;102016.00;;;6.80
11792;BMP180;5953;52.372;9.918;2023-02-15T03:35:34;102008.00;;;6.90
11792;BMP180;5953;52.372;9.918;2023-02-15T03:38:06;102006.00;;;6.90
11792;BMP180;5953;52.372;9.918;2023-02-15T03:40:37;102011.00;;;7.00
11792;BMP180;5953;52.372;9.918;2023-02-15T03:43:29;101998.00;;;6.90
11792;BMP180;5953;52.372;9.918;2023-02-15T03:46:02;101969.00;;;7.00
11792;BMP180;5953;52.372;9.918;2023-02-15T03:48:36;102000.00;;;6.90
11792;BMP180;5953;52.372;9.918;2023-02-15T03:51:09;101989.00;;;6.90
11792;BMP180;5953;52.372;9.918;2023-02-15T03:53:55;102006.00;;;6.80
11792;BMP180;5953;52.372;9.918;2023-02-15T03:56:24;101999.00;;;6.90
11792;BMP180;5953;52.372;9.918;2023-02-15T03:58:52;102006.00;;;7.00
11792;BMP180;5953;52.372;9.918;2023-02-15T04:01:40;101999.00;;;6.90
11792;BMP180;5953;52.372;9.918;2023-02-15T04:04:33;101978.00;;;6.90
11792;BMP180;5953;52.372;9.918;2023-02-15T04:07:04;102011.00;;;6.90
11792;BMP180;5953;52.372;9.918;2023-02-15T04:09:32;102014.00;;;7.00
11792;BMP180;5953;52.372;9.918;2023-02-15T04:12:17;102011.00;;;6.90
11792;BMP180;5953;52.372;9.918;2023-02-15T04:14:45;101991.00;;;7.00
11792;BMP180;5953;52.372;9.918;2023-02-15T04:17:30;102009.00;;;7.00
11792;BMP180;5953;52.372;9.918;2023-02-15T04:19:58;102000.00;;;7.00
11792;BMP180;5953;52.372;9.918;2023-02-15T04:22:45;101993.00;;;7.00
11792;BMP180;5953;52.372;9.918;2023-02-15T04:25:30;101990.00;;;7.00
11792;BMP180;5953;52.372;9.918;2023-02-15T04:27:58;101995.00;;;7.00
11792;BMP180;5953;52.372;9.918;2023-02-15T04:30:26;101987.00;;;7.10
11792;BMP180;5953;52.372;9.918;2023-02-15T04:32:54;101987.00;;;7.00
11792;BMP180;5953;52.372;9.918;2023-02-15T04:35:23;101993.00;;;7.10
11792;BMP180;5953;52.372;9.918;2023-02-15T04:37:53;101977.00;;;7.00
11792;BMP180;5953;52.372;9.918;2023-02-15T04:40:22;101986.00;;;7.10
11792;BMP180;5953;52.372;9.918;2023-02-15T04:42:50;101975.00;;;7.10
11792;BMP180;5953;52.372;9.918;2023-02-15T04:45:17;101979.00;;;7.00
11792;BMP180;5953;52.372;9.918;2023-02-15T04:47:45;101978.00;;;7.00
11792;BMP180;5953;52.372;9.918;2023-02-15T04:50:13;101972.00;;;7.00
11792;BMP180;5953;52.372;9.918;2023-02-15T04:52:41;101982.00;;;7.10
11792;BMP180;5953;52.372;9.918;2023-02-15T04:55:10;101974.00;;;7.00
11792;BMP180;5953;52.372;9.918;2023-02-15T04:57:38;101979.00;;;7.10
11792;BMP180;5953;52.372;9.918;2023-02-15T05:00:07;101974.00;;;7.10
11792;BMP180;5953;52.372;9.918;2023-02-15T05:02:36;101966.00;;;7.10
11792;BMP180;5953;52.372;9.918;2023-02-15T05:05:04;101968.00;;;7.00
11792;BMP180;5953;52.372;9.918;2023-02-15T05:07:32;101940.00;;;7.10
11792;BMP180;5953;52.372;9.918;2023-02-15T05:10:00;101965.00;;;7.00
11792;BMP180;5953;52.372;9.918;2023-02-15T05:12:29;101920.00;;;6.90
11792;BMP180;5953;52.372;9.918;2023-02-15T05:14:57;101959.00;;;6.90
11792;BMP180;5953;52.372;9.918;2023-02-15T05:17:25;101923.00;;;6.90
11792;BMP180;5953;52.372;9.918;2023-02-15T05:19:52;101948.00;;;7.00
11792;BMP180;5953;52.372;9.918;2023-02-15T05:22:20;101939.00;;;7.10
11792;BMP180;5953;52.372;9.918;2023-02-15T05:24:48;101955.00;;;7.10
11792;BMP180;5953;52.372;9.918;2023-02-15T05:27:34;101960.00;;;7.10
11792;BMP180;5953;52.372;9.918;2023-02-15T05:30:20;101960.00;;;7.10
11792;BMP180;5953;52.372;9.918;2023-02-15T05:32:48;101967.00;;;7.00
11792;BMP180;5953;52.372;9.918;2023-02-15T05:35:17;101965.00;;;7.00
11792;BMP180;5953;52.372;9.918;2023-02-15T05:37:45;101962.00;;;6.90
11792;BMP180;5953;52.372;9.918;2023-02-15T05:40:13;101962.00;;;6.80
11792;BMP180;5953;52.372;9.918;2023-02-15T05:42:42;101957.00;;;6.80
11792;BMP180;5953;52.372;9.918;2023-02-15T05:45:10;101960.00;;;6.90
11792;BMP180;5953;52.372;9.918;2023-02-15T05:47:37;101955.00;;;6.70
11792;BMP180;5953;52.372;9.918;2023-02-15T05:50:06;101952.00;;;6.80
11792;BMP180;5953;52.372;9.918;2023-02-15T05:52:34;101938.00;;;6.80
11792;BMP180;5953;52.372;9.918;2023-02-15T05:55:02;101938.00;;;6.70
11792;BMP180;5953;52.372;9.918;2023-02-15T05:57:31;101948.00;;;6.80
11792;BMP180;5953;52.372;9.918;2023-02-15T06:00:00;101957.00;;;6.70
11792;BMP180;5953;52.372;9.918;2023-02-15T06:02:33;101951.00;;;6.70
11792;BMP180;5953;52.372;9.918;2023-02-15T06:05:01;101951.00;;;6.70
11792;BMP180;5953;52.372;9.918;2023-02-15T06:07:30;101946.00;;;6.70
11792;BMP180;5953;52.372;9.918;2023-02-15T06:09:58;101944.00;;;6.70
11792;BMP180;5953;52.372;9.918;2023-02-15T06:12:25;101923.00;;;6.40
11792;BMP180;5953;52.372;9.918;2023-02-15T06:14:53;101953.00;;;6.70
11792;BMP180;5953;52.372;9.918;2023-02-15T06:17:22;101949.00;;;6.70
11792;BMP180;5953;52.372;9.918;2023-02-15T06:19:50;101945.00;;;6.90
11792;BMP180;5953;52.372;9.918;2023-02-15T06:22:18;101955.00;;;6.80
11792;BMP180;5953;52.372;9.918;2023-02-15T06:24:46;101945.00;;;6.70
11792;BMP180;5953;52.372;9.918;2023-02-15T06:27:14;101946.00;;;6.70
11792;BMP180;5953;52.372;9.918;2023-02-15T06:29:42;101942.00;;;6.60
11792;BMP180;5953;52.372;9.918;2023-02-15T06:32:10;101942.00;;;6.60
11792;BMP180;5953;52.372;9.918;2023-02-15T06:34:39;101939.00;;;6.60
11792;BMP180;5953;52.372;9.918;2023-02-15T06:37:08;101946.00;;;6.50
11792;BMP180;5953;52.372;9.918;2023-02-15T06:39:35;101945.00;;;6.60
11792;BMP180;5953;52.372;9.918;2023-02-15T06:42:03;101927.00;;;6.60
11792;BMP180;5953;52.372;9.918;2023-02-15T06:44:32;101924.00;;;6.60
11792;BMP180;5953;52.372;9.918;2023-02-15T06:46:59;101934.00;;;6.40
11792;BMP180;5953;52.372;9.918;2023-02-15T06:49:27;101933.00;;;6.30
11792;BMP180;5953;52.372;9.918;2023-02-15T06:51:56;101933.00;;;6.40
11792;BMP180;5953;52.372;9.918;2023-02-15T06:54:24;101939.00;;;6.40
11792;BMP180;5953;52.372;9.918;2023-02-15T06:56:52;101927.00;;;6.20
11792;BMP180;5953;52.372;9.918;2023-02-15T06:59:20;101926.00;;;6.10
11792;BMP180;5953;52.372;9.918;2023-02-15T07:01:48;101924.00;;;6.20
11792;BMP180;5953;52.372;9.918;2023-02-15T07:04:16;101931.00;;;6.20
11792;BMP180;5953;52.372;9.918;2023-02-15T07:06:44;101919.00;;;6.20
11792;BMP180;5953;52.372;9.918;2023-02-15T07:09:13;101930.00;;;6.00
11792;BMP180;5953;52.372;9.918;2023-02-15T07:11:41;101930.00;;;6.20
11792;BMP180;5953;52.372;9.918;2023-02-15T07:14:27;101909.00;;;6.20
11792;BMP180;5953;52.372;9.918;2023-02-15T07:16:54;101925.00;;;6.40
11792;BMP180;5953;52.372;9.918;2023-02-15T07:19:22;101907.00;;;6.40
11792;BMP180;5953;52.372;9.918;2023-02-15T07:21:50;101946.00;;;6.50
11792;BMP180;5953;52.372;9.918;2023-02-15T07:24:22;101911.00;;;6.50
11792;BMP180;5953;52.372;9.918;2023-02-15T07:26:50;101925.00;;;6.50
11792;BMP180;5953;52.372;9.918;2023-02-15T07:29:18;101927.00;;;6.60
11792;BMP180;5953;52.372;9.918;2023-02-15T07:31:46;101938.00;;;6.60
11792;BMP180;5953;52.372;9.918;2023-02-15T07:34:15;101937.00;;;6.60
11792;BMP180;5953;52.372;9.918;2023-02-15T07:36:45;101912.00;;;6.50
11792;BMP180;5953;52.372;9.918;2023-02-15T07:39:13;101938.00;;;6.50
11792;BMP180;5953;52.372;9.918;2023-02-15T07:41:44;101942.00;;;6.40
11792;BMP180;5953;52.372;9.918;2023-02-15T07:44:14;101905.00;;;6.40
11792;BMP180;5953;52.372;9.918;2023-02-15T07:46:42;101935.00;;;6.50
11792;BMP180;5953;52.372;9.918;2023-02-15T07:49:09;101938.00;;;6.50
11792;BMP180;5953;52.372;9.918;2023-02-15T07:51:37;101948.00;;;6.60
11792;BMP180;5953;52.372;9.918;2023-02-15T07:54:07;101943.00;;;6.20
11792;BMP180;5953;52.372;9.918;2023-02-15T07:56:35;101934.00;;;6.30
11792;BMP180;5953;52.372;9.918;2023-02-15T07:59:04;101935.00;;;6.30
11792;BMP180;5953;52.372;9.918;2023-02-15T08:01:36;101950.00;;;6.20
11792;BMP180;5953;52.372;9.918;2023-02-15T08:04:06;101926.00;;;6.30
11792;BMP180;5953;52.372;9.918;2023-02-15T08:06:35;101933.00;;;6.40
11792;BMP180;5953;52.372;9.918;2023-02-15T08:09:04;101930.00;;;6.50
11792;BMP180;5953;52.372;9.918;2023-02-15T08:11:34;101928.00;;;6.70
11792;BMP180;5953;52.372;9.918;2023-02-15T08:14:09;101926.00;;;6.90
11792;BMP180;5953;52.372;9.918;2023-02-15T08:16:38;101919.00;;;6.80
11792;BMP180;5953;52.372;9.918;2023-02-15T08:19:08;101921.00;;;6.80
11792;BMP180;5953;52.372;9.918;2023-02-15T08:21:38;101917.00;;;6.80
11792;BMP180;5953;52.372;9.918;2023-02-15T08:24:07;101904.00;;;7.10
11792;BMP180;5953;52.372;9.918;2023-02-15T08:26:36;101869.00;;;7.10
11792;BMP180;5953;52.372;9.918;2023-02-15T08:29:09;101898.00;;;7.20
11792;BMP180;5953;52.372;9.918;2023-02-15T08:31:37;101899.00;;;7.20
11792;BMP180;5953;52.372;9.918;2023-02-15T08:34:08;101892.00;;;7.20
11792;BMP180;5953;52.372;9.918;2023-02-15T08:36:36;101883.00;;;7.40
11792;BMP180;5953;52.372;9.918;2023-02-15T08:39:04;101894.00;;;7.60
11792;BMP180;5953;52.372;9.918;2023-02-15T08:41:34;101893.00;;;7.50
11792;BMP180;5953;52.372;9.918;2023-02-15T08:44:04;101896.00;;;7.50
11792;BMP180;5953;52.372;9.918;2023-02-15T08:46:36;101893.00;;;7.80
11792;BMP180;5953;52.372;9.918;2023-02-15T08:49:04;101878.00;;;7.60
11792;BMP180;5953;52.372;9.918;2023-02-15T08:51:33;101845.00;;;7.80
11792;BMP180;5953;52.372;9.918;2023-02-15T08:54:05;101871.00;;;8.00
11792;BMP180;5953;52.372;9.918;2023-02-15T08:56:35;101861.00;;;8.20
11792;BMP180;5953;52.372;9.918;2023-02-15T08:59:03;101871.00;;;8.30
11792;BMP180;5953;52.372;9.918;2023-02-15T09:01:34;101875.00;;;8.30
11792;BMP180;5953;52.372;9.918;2023-02-15T09:04:04;101875.00;;;8.30
11792;BMP180;5953;52.372;9.918;2023-02-15T09:06:32;101872.00;;;8.40
11792;BMP180;5953;52.372;9.918;2023-02-15T09:09:00;101842.00;;;8.60
11792;BMP180;5953;52.372;9.918;2023-02-15T09:11:32;101876.00;;;8.60
11792;BMP180;5953;52.372;9.918;2023-02-15T09:14:03;101846.00;;;8.80
11792;BMP180;5953;52.372;9.918;2023-02-15T09:16:33;101872.00;;;8.80
11792;BMP180;5953;52.372;9.918;2023-02-15T09:19:02;101860.00;;;8.70
11792;BMP180;5953;52.372;9.918;2023-02-15T09:21:32;101872.00;;;8.90
11792;BMP180;5953;52.372;9.918;2023-02-15T09:24:01;101869.00;;;9.00
11792;BMP180;5953;52.372;9.918;2023-02-15T09:26:32;101863.00;;;9.10
11792;BMP180;5953;52.372;9.918;2023-02-15T09:29:00;101878.00;;;9.10
11792;BMP180;5953;52.372;9.918;2023-02-15T09:31:30;101873.00;;;9.50
11792;BMP180;5953;52.372;9.918;2023-02-15T09:34:00;101843.00;;;9.70
11792;BMP180;5953;52.372;9.918;2023-02-15T09:36:31;101869.00;;;9.70
11792;BMP180;5953;52.372;9.918;2023-02-15T09:39:03;101872.00;;;9.70
11792;BMP180;5953;52.372;9.918;2023-02-15T09:44:33;101874.00;;;9.70
11792;BMP180;5953;52.372;9.918;2023-02-15T09:47:17;101869.00;;;9.40
11792;BMP180;5953;52.372;9.918;2023-02-15T09:49:56;101863.00;;;9.80
11792;BMP180;5953;52.372;9.918;2023-02-15T09:52:42;101842.00;;;9.40
11792;BMP180;5953;52.372;9.918;2023-02-15T09:55:33;101851.00;;;9.80
11792;BMP180;5953;52.372;9.918;2023-02-15T09:58:12;101870.00;;;9.40
11792;BMP180;5953;52.372;9.918;2023-02-15T10:00:50;101875.00;;;9.50
11792;BMP180;5953;52.372;9.918;2023-02-15T10:03:42;101860.00;;;10.00
11792;BMP180;5953;52.372;9.918;2023-02-15T10:06:31;101864.00;;;10.30
11792;BMP180;5953;52.372;9.918;2023-02-15T10:09:14;101861.00;;;10.30
11792;BMP180;5953;52.372;9.918;2023-02-15T10:12:02;101851.00;;;9.90
11792;BMP180;5953;52.372;9.918;2023-02-15T10:15:03;101854.00;;;10.00
11792;BMP180;5953;52.372;9.918;2023-02-15T10:17:45;101840.00;;;10.30
11792;BMP180;5953;52.372;9.918;2023-02-15T10:20:24;101851.00;;;9.90
11792;BMP180;5953;52.372;9.918;2023-02-15T10:23:08;101862.00;;;10.20
11792;BMP180;5953;52.372;9.918;2023-02-15T10:25:44;101863.00;;;10.30
11792;BMP180;5953;52.372;9.918;2023-02-15T10:28:17;101853.00;;;10.40
11792;BMP180;5953;52.372;9.918;2023-02-15T10:30:48;101861.00;;;9.90
11792;BMP180;5953;52.372;9.918;2023-02-15T10:33:29;101869.00;;;10.50
11792;BMP180;5953;52.372;9.918;2023-02-15T10:36:11;101860.00;;;10.80
11792;BMP180;5953;52.372;9.918;2023-02-15T10:38:49;101829.00;;;10.80
11792;BMP180;5953;52.372;9.918;2023-02-15T10:41:31;101864.00;;;10.50
11792;BMP180;5953;52.372;9.918;2023-02-15T10:44:28;101857.00;;;10.80
11792;BMP180;5953;52.372;9.918;2023-02-15T10:47:18;101847.00;;;11.00
11792;BMP180;5953;52.372;9.918;2023-02-15T10:50:06;101861.00;;;11.20
11792;BMP180;5953;52.372;9.918;2023-02-15T10:52:42;101858.00;;;11.10
11792;BMP180;5953;52.372;9.918;2023-02-15T10:55:21;101850.00;;;11.40
11792;BMP180;5953;52.372;9.918;2023-02-15T10:57:58;101852.00;;;10.80
11792;BMP180;5953;52.372;9.918;2023-02-15T11:00:31;101848.00;;;11.60
11792;BMP180;5953;52.372;9.918;2023-02-15T11:03:16;101831.00;;;11.80
11792;BMP180;5953;52.372;9.918;2023-02-15T11:05:57;101838.00;;;11.80
11792;BMP180;5953;52.372;9.918;2023-02-15T11:08:29;101838.00;;;11.60
11792;BMP180;5953;52.372;9.918;2023-02-15T11:11:02;101843.00;;;12.00
11792;BMP180;5953;52.372;9.918;2023-02-15T11:13:38;101834.00;;;12.20
11792;BMP180;5953;52.372;9.918;2023-02-15T11:16:12;101812.00;;;12.20
11792;BMP180;5953;52.372;9.918;2023-02-15T11:18:48;101811.00;;;12.40
11792;BMP180;5953;52.372;9.918;2023-02-15T11:21:22;101823.00;;;12.30
11792;BMP180;5953;52.372;9.918;2023-02-15T11:23:53;101804.00;;;12.50
11792;BMP180;5953;52.372;9.918;2023-02-15T11:26:28;101807.00;;;12.60
11792;BMP180;5953;52.372;9.918;2023-02-15T11:29:02;101782.00;;;12.20
11792;BMP180;5953;52.372;9.918;2023-02-15T11:31:41;101816.00;;;12.50
11792;BMP180;5953;52.372;9.918;2023-02-15T11:34:15;101791.00;;;12.40
11792;BMP180;5953;52.372;9.918;2023-02-15T11:36:47;101823.00;;;12.50
11792;BMP180;5953;52.372;9.918;2023-02-15T11:39:19;101825.00;;;12.70
11792;BMP180;5953;52.372;9.918;2023-02-15T11:41:52;101816.00;;;12.60
11792;BMP180;5953;52.372;9.918;2023-02-15T11:44:23;101828.00;;;12.70
11792;BMP180;5953;52.372;9.918;2023-02-15T11:46:52;101818.00;;;12.90
11792;BMP180;5953;52.372;9.918;2023-02-15T11:49:23;101811.00;;;12.90
11792;BMP180;5953;52.372;9.918;2023-02-15T11:51:52;101805.00;;;12.50
11792;BMP180;5953;52.372;9.918;2023-02-15T11:54:26;101788.00;;;12.30
11792;BMP180;5953;52.372;9.918;2023-02-15T11:56:56;101798.00;;;12.70
11792;BMP180;5953;52.372;9.918;2023-02-15T11:59:29;101803.00;;;12.90
11792;BMP180;5953;52.372;9.918;2023-02-15T12:01:59;101803.00;;;12.90
11792;BMP180;5953;52.372;9.918;2023-02-15T12:04:30;101798.00;;;13.10
11792;BMP180;5953;52.372;9.918;2023-02-15T12:07:04;101792.00;;;13.10
11792;BMP180;5953;52.372;9.918;2023-02-15T12:09:47;101796.00;;;13.10
11792;BMP180;5953;52.372;9.918;2023-02-15T12:12:26;101785.00;;;13.20
11792;BMP180;5953;52.372;9.918;2023-02-15T12:14:54;101790.00;;;13.40
11792;BMP180;5953;52.372;9.918;2023-02-15T12:17:24;101758.00;;;13.50
11792;BMP180;5953;52.372;9.918;2023-02-15T12:19:56;101784.00;;;13.60
11792;BMP180;5953;52.372;9.918;2023-02-15T12:22:27;101785.00;;;13.50
11792;BMP180;5953;52.372;9.918;2023-02-15T12:24:58;101779.00;;;13.70
11792;BMP180;5953;52.372;9.918;2023-02-15T12:27:29;101782.00;;;13.40
11792;BMP180;5953;52.372;9.918;2023-02-15T12:29:59;101782.00;;;13.70
11792;BMP180;5953;52.372;9.918;2023-02-15T12:32:31;101783.00;;;13.80
11792;BMP180;5953;52.372;9.918;2023-02-15T12:35:08;101737.00;;;13.70
11792;BMP180;5953;52.372;9.918;2023-02-15T12:37:38;101748.00;;;13.90
11792;BMP180;5953;52.372;9.918;2023-02-15T12:40:20;101761.00;;;13.70
11792;BMP180;5953;52.372;9.918;2023-02-15T12:42:49;101754.00;;;13.90
11792;BMP180;5953;52.372;9.918;2023-02-15T12:45:23;101772.00;;;13.80
11792;BMP180;5953;52.372;9.918;2023-02-15T12:48:10;101762.00;;;13.80
11792;BMP180;5953;52.372;9.918;2023-02-15T12:50:41;101761.00;;;14.00
11792;BMP180;5953;52.372;9.918;2023-02-15T12:53:14;101754.00;;;14.00
11792;BMP180;5953;52.372;9.918;2023-02-15T12:55:51;101765.00;;;13.90
11792;BMP180;5953;52.372;9.918;2023-02-15T12:58:23;101754.00;;;13.70
11792;BMP180;5953;52.372;9.918;2023-02-15T13:01:04;101764.00;;;14.10
11792;BMP180;5953;52.372;9.918;2023-02-15T13:03:38;101764.00;;;13.70
11792;BMP180;5953;52.372;9.918;2023-02-15T13:06:17;101763.00;;;13.90
11792;BMP180;5953;52.372;9.918;2023-02-15T13:08:47;101759.00;;;14.10
11792;BMP180;5953;52.372;9.918;2023-02-15T13:11:21;101754.00;;;13.80
11792;BMP180;5953;52.372;9.918;2023-02-15T13:13:54;101752.00;;;14.10
11792;BMP180;5953;52.372;9.918;2023-02-15T13:16:29;101755.00;;;13.80
11792;BMP180;5953;52.372;9.918;2023-02-15T13:19:02;101739.00;;;14.00
11792;BMP180;5953;52.372;9.918;2023-02-15T13:21:35;101744.00;;;13.90
11792;BMP180;5953;52.372;9.918;2023-02-15T13:24:06;101744.00;;;13.90
11792;BMP180;5953;52.372;9.918;2023-02-15T13:26:35;101728.00;;;14.10
11792;BMP180;5953;52.372;9.918;2023-02-15T13:29:10;101729.00;;;14.20
11792;BMP180;5953;52.372;9.918;2023-02-15T13:31:39;101740.00;;;14.20
11792;BMP180;5953;52.372;9.918;2023-02-15T13:34:10;101726.00;;;14.30
11792;BMP180;5953;52.372;9.918;2023-02-15T13:36:48;101717.00;;;14.40
11792;BMP180;5953;52.372;9.918;2023-02-15T13:39:24;101718.00;;;14.40
11792;BMP180;5953;52.372;9.918;2023-02-15T13:42:00;101719.00;;;14.00
11792;BMP180;5953;52.372;9.918;2023-02-15T13:44:57;101730.00;;;13.80
11792;BMP180;5953;52.372;9.918;2023-02-15T13:47:34;101717.00;;;14.20
11792;BMP180;5953;52.372;9.918;2023-02-15T13:50:19;101722.00;;;14.40
11792;BMP180;5953;52.372;9.918;2023-02-15T13:52:55;101715.00;;;14.50
11792;BMP180;5953;52.372;9.918;2023-02-15T13:55:36;101714.00;;;14.10
11792;BMP180;5953;52.372;9.918;2023-02-15T13:58:18;101685.00;;;14.20
11792;BMP180;5953;52.372;9.918;2023-02-15T14:01:00;101705.00;;;14.30
11792;BMP180;5953;52.372;9.918;2023-02-15T14:03:57;101703.00;;;14.40
11792;BMP180;5953;52.372;9.918;2023-02-15T14:06:37;101716.00;;;14.30
11792;BMP180;5953;52.372;9.918;2023-02-15T14:09:18;101705.00;;;14.50
11792;BMP180;5953;52.372;9.918;2023-02-15T14:11:54;101709.00;;;14.50
11792;BMP180;5953;52.372;9.918;2023-02-15T14:14:52;101695.00;;;14.50
11792;BMP180;5953;52.372;9.918;2023-02-15T14:17:40;101697.00;;;14.50
11792;BMP180;5953;52.372;9.918;2023-02-15T14:20:20;101693.00;;;14.60
11792;BMP180;5953;52.372;9.918;2023-02-15T14:22:54;101692.00;;;14.50
11792;BMP180;5953;52.372;9.918;2023-02-15T14:25:27;101690.00;;;14.40
11792;BMP180;5953;52.372;9.918;2023-02-15T14:28:03;101690.00;;;14.30
11792;BMP180;5953;52.372;9.918;2023-02-15T14:30:34;101697.00;;;14.00
11792;BMP180;5953;52.372;9.918;2023-02-15T14:33:08;101699.00;;;14.40
11792;BMP180;5953;52.372;9.918;2023-02-15T14:35:36;101689.00;;;14.40
11792;BMP180;5953;52.372;9.918;2023-02-15T14:38:11;101686.00;;;14.10
11792;BMP180;5953;52.372;9.918;2023-02-15T14:40:46;101682.00;;;14.10
11792;BMP180;5953;52.372;9.918;2023-02-15T14:43:41;101682.00;;;13.90
11792;BMP180;5953;52.372;9.918;2023-02-15T14:46:19;101694.00;;;13.80
11792;BMP180;5953;52.372;9.918;2023-02-15T14:48:52;101664.00;;;14.10
11792;BMP180;5953;52.372;9.918;2023-02-15T14:51:56;101681.00;;;14.00
11792;BMP180;5953;52.372;9.918;2023-02-15T14:54:59;101685.00;;;13.60